createdAt,value
2018-04-16T00:01:47.798Z,69.35
2018-04-16T00:05:10.690Z,69.29
2018-04-16T00:08:33.542Z,69.80
2018-04-16T00:11:56.366Z,70.34
2018-04-16T00:15:19.248Z,70.48
2018-04-16T00:18:42.182Z,70.81
2018-04-16T00:22:05.101Z,70.78
2018-04-16T00:25:29.457Z,70.90
2018-04-16T00:28:52.309Z,70.97
2018-04-16T00:32:20.724Z,71.22
2018-04-16T00:35:49.229Z,71.24
2018-04-16T00:39:18.556Z,71.16
2018-04-16T00:42:46.963Z,71.24
2018-04-16T00:46:15.482Z,70.58
2018-04-16T00:49:43.904Z,71.18
2018-04-16T00:53:12.359Z,70.60
2018-04-16T00:56:40.763Z,71.82
2018-04-16T01:00:11.019Z,73.34
2018-04-16T01:03:41.179Z,74.60
2018-04-16T01:07:09.615Z,74.43
2018-04-16T01:10:38.929Z,75.79
2018-04-16T01:14:08.176Z,75.62
2018-04-16T01:17:37.591Z,76.67
2018-04-16T01:21:05.995Z,76.88
2018-04-16T01:24:35.520Z,76.60
2018-04-16T01:28:04.106Z,77.66
2018-04-16T01:31:32.524Z,77.58
2018-04-16T01:35:00.908Z,78.08
2018-04-16T01:38:29.301Z,78.38
2018-04-16T01:41:57.867Z,79.44
2018-04-16T01:45:26.403Z,80.72
2018-04-16T01:52:58.265Z,80.51
2018-04-16T01:56:26.672Z,80.23
2018-04-16T02:03:57.013Z,80.90
2018-04-16T02:07:26.400Z,81.55
2018-04-16T02:10:55.744Z,80.89
2018-04-16T02:14:24.298Z,81.49
2018-04-16T02:17:52.919Z,81.76
2018-04-16T02:21:21.355Z,80.89
2018-04-16T02:24:50.623Z,79.80
2018-04-16T02:28:19.033Z,80.40
2018-04-16T02:31:48.885Z,80.71
2018-04-16T02:35:18.265Z,81.26
2018-04-16T02:42:47.452Z,80.91
2018-04-16T02:46:15.985Z,80.46
2018-04-16T02:49:44.513Z,80.23
2018-04-16T02:53:13.083Z,80.69
2018-04-16T02:56:41.629Z,80.07
2018-04-16T03:00:10.205Z,80.19
2018-04-16T03:03:38.795Z,78.95
2018-04-16T03:07:07.419Z,81.26
2018-04-16T03:10:36.704Z,82.98
2018-04-16T03:14:06.553Z,83.00
2018-04-16T03:17:34.894Z,82.24
2018-04-16T03:21:04.240Z,83.34
2018-04-16T03:24:32.641Z,81.70
2018-04-16T03:28:01.232Z,82.78
2018-04-16T03:35:26.547Z,82.35
2018-04-16T03:38:55.042Z,82.68
2018-04-16T03:42:23.494Z,82.30
2018-04-16T03:45:52.030Z,83.01
2018-04-16T03:49:20.671Z,83.09
2018-04-16T03:52:49.216Z,82.79
2018-04-16T03:56:12.149Z,83.44
2018-04-16T03:59:36.501Z,83.22
2018-04-16T04:02:59.507Z,83.17
2018-04-16T04:06:22.427Z,83.24
2018-04-16T04:09:46.789Z,81.93
2018-04-16T04:13:09.703Z,83.56
2018-04-16T04:16:32.649Z,81.93
2018-04-16T04:19:56.280Z,83.96
2018-04-16T04:23:31.061Z,83.73
2018-04-16T04:27:05.878Z,83.37
2018-04-16T04:30:39.535Z,83.60
2018-04-16T04:34:03.289Z,83.63
2018-04-16T04:37:26.162Z,82.98
2018-04-16T04:40:49.198Z,82.50
2018-04-16T04:44:12.095Z,82.64
2018-04-16T04:47:35.757Z,83.27
2018-04-16T04:50:58.660Z,82.42
2018-04-16T04:54:22.319Z,82.18
2018-04-16T04:57:46.035Z,83.15
2018-04-16T05:01:09.807Z,84.38
2018-04-16T05:04:33.424Z,83.46
2018-04-16T05:07:56.413Z,82.39
2018-04-16T05:11:19.343Z,82.95
2018-04-16T05:14:42.989Z,84.03
2018-04-16T05:18:05.881Z,85.76
2018-04-16T05:21:28.769Z,84.79
2018-04-16T05:24:51.633Z,85.37
2018-04-16T05:28:14.577Z,86.29
2018-04-16T05:31:37.465Z,85.70
2018-04-16T05:35:00.405Z,86.42
2018-04-16T05:38:24.083Z,86.74
2018-04-16T05:41:46.983Z,85.40
2018-04-16T05:45:09.951Z,85.57
2018-04-16T05:48:32.860Z,84.54
2018-04-16T05:51:55.817Z,83.24
2018-04-16T05:55:18.724Z,84.67
2018-04-16T05:58:42.443Z,84.31
2018-04-16T06:02:06.074Z,84.37
2018-04-16T06:05:29.980Z,84.08
2018-04-16T06:08:52.864Z,83.79
2018-04-16T06:12:15.799Z,84.02
2018-04-16T06:18:57.905Z,84.25
2018-04-16T06:22:20.787Z,84.77
2018-04-16T06:25:44.433Z,83.74
2018-04-16T06:29:08.149Z,82.27
2018-04-16T06:32:31.977Z,82.56
2018-04-16T06:35:54.884Z,81.91
2018-04-16T06:39:18.564Z,82.01
2018-04-16T06:42:41.467Z,82.94
2018-04-16T06:46:04.361Z,81.86
2018-04-16T06:49:28.116Z,82.01
2018-04-16T06:52:50.986Z,82.37
2018-04-16T06:56:15.324Z,80.56
2018-04-16T06:59:38.200Z,80.31
2018-04-16T07:03:01.089Z,79.93
2018-04-16T07:06:23.925Z,79.78
2018-04-16T07:09:46.794Z,80.47
2018-04-16T07:13:09.659Z,78.74
2018-04-16T07:16:32.525Z,78.77
2018-04-16T07:19:56.244Z,78.14
2018-04-16T07:23:19.859Z,76.97
2018-04-16T07:26:42.762Z,77.07
2018-04-16T07:30:05.598Z,77.33
2018-04-16T07:33:29.241Z,78.05
2018-04-16T07:36:52.849Z,76.73
2018-04-16T07:40:15.731Z,75.90
2018-04-16T07:43:40.213Z,75.08
2018-04-16T07:47:03.816Z,74.50
2018-04-16T07:50:27.467Z,73.75
2018-04-16T07:53:50.370Z,74.03
2018-04-16T07:57:13.245Z,74.04
2018-04-16T08:00:36.953Z,73.66
2018-04-16T08:03:59.902Z,74.33
2018-04-16T08:07:23.558Z,73.74
2018-04-16T08:10:46.459Z,72.32
2018-04-16T08:14:10.281Z,72.08
2018-04-16T08:17:33.152Z,72.81
2018-04-16T08:20:56.191Z,70.05
2018-04-16T08:24:20.273Z,70.57
2018-04-16T08:27:43.168Z,70.87
2018-04-16T08:31:06.801Z,69.78
2018-04-16T08:34:30.435Z,70.64
2018-04-16T08:37:53.332Z,70.60
2018-04-16T08:41:16.255Z,72.12
2018-04-16T08:44:39.072Z,73.48
2018-04-16T08:48:02.711Z,74.23
2018-04-16T08:51:25.674Z,73.58
2018-04-16T08:54:48.568Z,74.10
2018-04-16T08:58:12.208Z,74.19
2018-04-16T09:01:35.953Z,73.11
2018-04-16T09:04:58.901Z,71.90
2018-04-16T09:08:21.757Z,71.62
2018-04-16T09:11:44.643Z,70.80
2018-04-16T09:15:07.516Z,70.49
2018-04-16T09:18:30.374Z,69.81
2018-04-16T09:21:53.228Z,68.42
2018-04-16T09:25:16.231Z,68.55
2018-04-16T09:28:39.888Z,65.95
2018-04-16T09:32:03.510Z,65.77
2018-04-16T09:35:27.028Z,65.04
2018-04-16T09:46:45.038Z,63.13
2018-04-16T09:50:08.129Z,61.21
2018-04-16T09:53:32.064Z,60.30
2018-04-16T09:56:55.021Z,61.02
2018-04-16T10:00:24.342Z,60.68
2018-04-16T10:03:48.964Z,61.52
2018-04-16T10:07:11.859Z,61.46
2018-04-16T10:10:34.733Z,61.38
2018-04-16T10:13:57.587Z,62.71
2018-04-16T10:17:21.727Z,62.46
2018-04-16T10:20:44.607Z,62.27
2018-04-16T10:24:08.828Z,62.97
2018-04-16T10:27:31.796Z,63.87
2018-04-16T10:30:54.781Z,62.98
2018-04-16T10:34:18.430Z,63.40
2018-04-16T10:37:41.433Z,62.81
2018-04-16T10:41:04.443Z,61.72
2018-04-16T10:44:28.156Z,62.06
2018-04-16T10:47:51.182Z,61.68
2018-04-16T10:51:14.984Z,61.46
2018-04-16T10:54:38.811Z,61.57
2018-04-16T10:58:01.727Z,61.01
2018-04-16T11:01:24.663Z,61.43
2018-04-16T11:04:47.729Z,57.55
2018-04-16T11:08:10.676Z,57.23
2018-04-16T11:11:34.412Z,58.35
2018-04-16T11:14:57.307Z,57.10
2018-04-16T11:18:20.989Z,56.25
2018-04-16T11:21:43.870Z,56.62
2018-04-16T11:25:06.776Z,57.74
2018-04-16T11:28:29.621Z,58.36
2018-04-16T11:31:52.537Z,56.87
2018-04-16T11:35:15.452Z,55.79
2018-04-16T11:38:38.327Z,53.79
2018-04-16T11:42:01.241Z,54.80
2018-04-16T11:45:24.163Z,55.34
2018-04-16T11:48:47.879Z,55.63
2018-04-16T11:52:10.869Z,56.12
2018-04-16T11:55:33.734Z,57.16
2018-04-16T11:58:56.657Z,55.91
2018-04-16T12:02:19.579Z,55.08
2018-04-16T12:05:43.250Z,56.22
2018-04-16T12:09:06.143Z,55.54
2018-04-16T12:12:29.107Z,55.56
2018-04-16T12:15:51.962Z,55.03
2018-04-16T12:19:14.863Z,53.78
2018-04-16T12:22:38.477Z,54.93
2018-04-16T12:26:02.291Z,53.34
2018-04-16T12:29:25.212Z,54.30
2018-04-16T12:32:48.128Z,54.98
2018-04-16T12:36:11.764Z,53.85
2018-04-16T12:39:35.526Z,54.22
2018-04-16T12:42:58.397Z,52.64
2018-04-16T12:46:21.350Z,53.47
2018-04-16T12:49:44.293Z,52.02
2018-04-16T12:53:07.141Z,52.66
2018-04-16T12:56:29.995Z,53.05
2018-04-16T12:59:52.856Z,54.16
2018-04-16T13:03:15.761Z,55.18
2018-04-16T13:06:38.648Z,56.12
2018-04-16T13:10:02.341Z,53.65
2018-04-16T13:13:25.256Z,52.82
2018-04-16T13:16:48.251Z,56.45
2018-04-16T13:20:11.254Z,55.65
2018-04-16T13:23:34.223Z,58.88
2018-04-16T13:26:57.101Z,61.32
2018-04-16T13:30:21.473Z,64.79
2018-04-16T13:33:44.309Z,65.66
2018-04-16T13:37:07.337Z,66.29
2018-04-16T13:40:30.926Z,65.28
2018-04-16T13:43:53.835Z,65.85
2018-04-16T13:47:16.749Z,65.86
2018-04-16T13:50:40.381Z,66.53
2018-04-16T13:54:03.419Z,65.33
2018-04-16T13:57:26.320Z,65.16
2018-04-16T14:00:49.195Z,65.47
2018-04-16T14:04:12.075Z,66.38
2018-04-16T14:07:43.434Z,65.83
2018-04-16T14:11:07.169Z,65.70
2018-04-16T14:14:30.045Z,65.76
2018-04-16T14:17:53.503Z,65.68
2018-04-16T14:21:17.138Z,65.34
2018-04-16T14:24:40.780Z,66.10
2018-04-16T14:28:04.433Z,65.43
2018-04-16T14:31:28.093Z,65.20
2018-04-16T14:34:51.735Z,64.08
2018-04-16T14:38:15.455Z,63.27
2018-04-16T14:41:39.193Z,61.77
2018-04-16T14:45:02.105Z,62.94
2018-04-16T14:48:25.715Z,61.64
2018-04-16T14:51:48.703Z,60.37
2018-04-16T14:55:11.634Z,59.67
2018-04-16T14:58:34.480Z,59.55
2018-04-16T15:01:57.334Z,60.10
2018-04-16T15:05:20.236Z,59.40
2018-04-16T15:08:43.112Z,59.24
2018-04-16T15:12:06.820Z,59.57
2018-04-16T15:15:29.689Z,59.60
2018-04-16T15:18:53.360Z,58.73
2018-04-16T15:22:16.231Z,59.94
2018-04-16T15:25:39.273Z,60.63
2018-04-16T15:29:02.161Z,60.43
2018-04-16T15:32:25.100Z,59.07
2018-04-16T15:35:48.844Z,59.55
2018-04-16T15:39:11.717Z,59.39
2018-04-16T15:42:34.705Z,59.96
2018-04-16T15:45:59.283Z,59.54
2018-04-16T15:49:22.170Z,59.74
2018-04-16T15:52:46.731Z,60.51
2018-04-16T15:56:09.654Z,60.69
2018-04-16T15:59:32.515Z,60.58
2018-04-16T16:02:56.125Z,60.31
2018-04-16T16:06:19.813Z,60.17
2018-04-16T16:09:42.788Z,59.95
2018-04-16T16:13:05.779Z,60.06
2018-04-16T16:16:28.705Z,60.24
2018-04-16T16:19:51.570Z,59.95
2018-04-16T16:23:15.209Z,59.77
2018-04-16T16:26:38.077Z,60.15
2018-04-16T16:30:01.708Z,59.88
2018-04-16T16:33:24.859Z,59.32
2018-04-16T16:36:47.796Z,59.92
2018-04-16T16:40:11.626Z,60.38
2018-04-16T16:43:34.474Z,59.90
2018-04-16T16:46:57.423Z,60.21
2018-04-16T16:50:21.273Z,59.85
2018-04-16T16:53:44.225Z,60.14
2018-04-16T16:57:07.207Z,60.34
2018-04-16T17:00:30.848Z,60.22
2018-04-16T17:03:54.517Z,60.60
2018-04-16T17:07:17.452Z,61.18
2018-04-16T17:10:40.350Z,60.96
2018-04-16T17:14:03.269Z,60.55
2018-04-16T17:17:26.271Z,61.47
2018-04-16T17:20:49.152Z,61.77
2018-04-16T17:24:12.063Z,62.13
2018-04-16T17:27:34.948Z,62.02
2018-04-16T17:30:58.628Z,62.25
2018-04-16T17:34:21.568Z,62.01
2018-04-16T17:37:44.504Z,61.62
2018-04-16T17:41:08.170Z,61.84
2018-04-16T17:44:31.168Z,62.31
2018-04-16T17:47:54.268Z,62.30
2018-04-16T17:51:17.413Z,62.34
2018-04-16T17:54:41.120Z,62.39
2018-04-16T17:58:04.017Z,61.65
2018-04-16T18:01:26.993Z,61.65
2018-04-16T18:04:51.828Z,62.35
2018-04-16T18:08:15.258Z,61.75
2018-04-16T18:11:38.149Z,62.21
2018-04-16T18:15:01.840Z,62.97
2018-04-16T18:18:24.699Z,63.21
2018-04-16T18:21:52.373Z,62.78
2018-04-16T18:25:15.415Z,62.57
2018-04-16T18:28:40.009Z,62.34
2018-04-16T18:32:03.054Z,62.96
2018-04-16T18:35:25.912Z,63.15
2018-04-16T18:38:48.749Z,63.80
2018-04-16T18:42:11.645Z,63.87
2018-04-16T18:45:35.238Z,64.79
2018-04-16T18:48:58.091Z,65.09
2018-04-16T18:52:20.970Z,65.77
2018-04-16T18:55:43.878Z,67.01
2018-04-16T18:59:06.817Z,67.22
2018-04-16T19:02:30.932Z,67.84
2018-04-16T19:05:53.905Z,68.81
2018-04-16T19:09:17.533Z,69.36
2018-04-16T19:12:41.175Z,69.23
2018-04-16T19:16:06.995Z,68.77
2018-04-16T19:19:29.869Z,68.56
2018-04-16T19:22:53.510Z,68.29
2018-04-16T19:26:17.137Z,68.43
2018-04-16T19:29:39.984Z,68.67
2018-04-16T19:33:08.518Z,68.27
2018-04-16T19:36:32.292Z,68.87
2018-04-16T19:39:56.265Z,69.56
2018-04-16T19:43:19.917Z,70.35
2018-04-16T19:46:42.823Z,70.54
2018-04-16T19:50:06.475Z,70.22
2018-04-16T19:53:30.141Z,70.18
2018-04-16T19:56:59.450Z,69.26
2018-04-16T20:00:23.087Z,69.16
2018-04-16T20:03:52.375Z,68.85
2018-04-16T20:07:15.228Z,69.16
2018-04-16T20:10:38.126Z,70.44
2018-04-16T20:14:01.074Z,69.72
2018-04-16T20:17:23.930Z,71.16
2018-04-16T20:20:46.839Z,73.23
2018-04-16T20:24:09.707Z,72.73
2018-04-16T20:27:32.648Z,73.50
2018-04-16T20:30:56.270Z,73.56
2018-04-16T20:34:19.200Z,74.31
2018-04-16T20:37:42.822Z,74.17
2018-04-16T20:41:05.680Z,74.02
2018-04-16T20:44:28.602Z,75.02
2018-04-16T20:47:51.534Z,74.87
2018-04-16T20:51:14.405Z,74.56
2018-04-16T20:54:37.271Z,74.79
2018-04-16T20:58:00.160Z,74.01
2018-04-16T21:01:24.538Z,73.68
2018-04-16T21:04:48.163Z,72.81
2018-04-16T21:08:11.072Z,73.86
2018-04-16T21:11:33.914Z,74.19
2018-04-16T21:14:56.796Z,74.45
2018-04-16T21:18:20.404Z,74.57
2018-04-16T21:21:43.375Z,75.26
2018-04-16T21:25:07.063Z,74.98
2018-04-16T21:28:29.891Z,74.75
2018-04-16T21:31:53.844Z,75.37
2018-04-16T21:35:16.743Z,74.08
2018-04-16T21:38:39.719Z,75.36
2018-04-16T21:42:03.428Z,76.66
2018-04-16T21:45:26.399Z,76.62
2018-04-16T21:48:49.309Z,76.45
2018-04-16T21:52:12.168Z,76.83
2018-04-16T21:55:35.159Z,76.22
2018-04-16T21:58:58.010Z,75.44
2018-04-16T22:02:21.130Z,75.39
2018-04-16T22:05:44.118Z,76.13
2018-04-16T22:09:07.089Z,76.24
2018-04-16T22:12:32.000Z,76.78
2018-04-16T22:15:54.989Z,75.77
2018-04-16T22:19:18.009Z,75.54
2018-04-16T22:22:40.974Z,74.88
2018-04-16T22:26:04.070Z,75.67
2018-04-16T22:29:27.025Z,75.35
2018-04-16T22:32:50.748Z,75.76
2018-04-16T22:36:14.740Z,75.11
2018-04-16T22:39:39.007Z,75.13
2018-04-16T22:43:02.000Z,75.45
2018-04-16T22:46:24.964Z,76.29
2018-04-16T22:49:48.716Z,76.82
2018-04-16T22:53:12.178Z,75.86
2018-04-16T22:56:35.192Z,75.52
2018-04-16T22:59:58.915Z,75.92
2018-04-16T23:03:21.914Z,76.05
2018-04-16T23:06:44.900Z,75.63
2018-04-16T23:10:08.629Z,75.76
2018-04-16T23:13:31.644Z,76.32
2018-04-16T23:16:54.591Z,76.33
2018-04-16T23:20:18.481Z,76.58
2018-04-16T23:23:41.432Z,76.67
2018-04-16T23:27:04.383Z,76.43
2018-04-16T23:30:28.086Z,77.34
2018-04-16T23:33:51.075Z,77.31
2018-04-16T23:37:14.065Z,77.76
2018-04-16T23:40:36.973Z,77.34
2018-04-16T23:43:59.953Z,77.46
2018-04-16T23:47:22.883Z,77.43
2018-04-16T23:50:45.804Z,78.20
2018-04-16T23:54:08.750Z,78.52
2018-04-16T23:57:33.224Z,78.87
